sensor_id;sensor_type;location;lat;lon;timestamp;pressure;altitude;pressure_sealevel;temperature;humidity
23363;BME280;11853;48.080;11.960;2023-07-20T00:01:24;94647.09;;;21.41;86.01
23363;BME280;11853;48.080;11.960;2023-07-20T00:03:50;94652.06;;;21.37;85.87
23363;BME280;11853;48.080;11.960;2023-07-20T00:06:21;94657.06;;;21.33;86.05
23363;BME280;11853;48.080;11.960;2023-07-20T00:08:46;94667.25;;;21.31;86.56
23363;BME280;11853;48.080;11.960;2023-07-20T00:11:12;94664.44;;;21.26;86.93
23363;BME280;11853;48.080;11.960;2023-07-20T00:13:39;94662.03;;;21.18;88.43
23363;BME280;11853;48.080;11.960;2023-07-20T00:16:05;94655.66;;;21.12;88.85
23363;BME280;11853;48.080;11.960;2023-07-20T00:18:30;94664.31;;;20.96;91.73
23363;BME280;11853;48.080;11.960;2023-07-20T00:20:56;94660.06;;;20.82;93.01
23363;BME280;11853;48.080;11.960;2023-07-20T00:23:22;94646.75;;;20.87;93.26
23363;BME280;11853;48.080;11.960;2023-07-20T00:25:48;94666.44;;;20.87;92.43
23363;BME280;11853;48.080;11.960;2023-07-20T00:28:14;94674.81;;;20.79;92.68
23363;BME280;11853;48.080;11.960;2023-07-20T00:30:40;94669.97;;;20.63;92.90
23363;BME280;11853;48.080;11.960;2023-07-20T00:33:10;94666.13;;;20.77;91.50
23363;BME280;11853;48.080;11.960;2023-07-20T00:35:37;94665.66;;;20.80;91.20
23363;BME280;11853;48.080;11.960;2023-07-20T00:38:03;94659.63;;;20.85;91.49
23363;BME280;11853;48.080;11.960;2023-07-20T00:40:35;94661.66;;;20.89;90.86
23363;BME280;11853;48.080;11.960;2023-07-20T00:43:02;94666.44;;;20.87;90.70
23363;BME280;11853;48.080;11.960;2023-07-20T00:45:29;94675.00;;;20.84;90.69
23363;BME280;11853;48.080;11.960;2023-07-20T00:47:55;94674.63;;;20.81;90.38
23363;BME280;11853;48.080;11.960;2023-07-20T00:50:22;94672.28;;;20.84;90.47
23363;BME280;11853;48.080;11.960;2023-07-20T00:52:48;94672.66;;;20.88;90.11
23363;BME280;11853;48.080;11.960;2023-07-20T00:55:14;94670.66;;;20.83;90.31
23363;BME280;11853;48.080;11.960;2023-07-20T00:57:40;94671.63;;;20.64;92.08
23363;BME280;11853;48.080;11.960;2023-07-20T01:00:07;94683.28;;;20.51;94.68
23363;BME280;11853;48.080;11.960;2023-07-20T01:02:33;94673.81;;;20.42;96.35
23363;BME280;11853;48.080;11.960;2023-07-20T01:04:58;94679.28;;;20.35;96.36
23363;BME280;11853;48.080;11.960;2023-07-20T01:07:32;94688.75;;;20.44;96.42
23363;BME280;11853;48.080;11.960;2023-07-20T01:12:47;94680.53;;;20.33;97.91
23363;BME280;11853;48.080;11.960;2023-07-20T01:15:12;94667.88;;;20.33;98.26
23363;BME280;11853;48.080;11.960;2023-07-20T01:17:38;94666.44;;;20.31;97.98
23363;BME280;11853;48.080;11.960;2023-07-20T01:20:08;94661.84;;;20.38;97.21
23363;BME280;11853;48.080;11.960;2023-07-20T01:33:48;94674.81;;;20.16;100.00
23363;BME280;11853;48.080;11.960;2023-07-20T01:36:16;94661.09;;;20.24;100.00
23363;BME280;11853;48.080;11.960;2023-07-20T01:38:43;94671.63;;;20.32;100.00
23363;BME280;11853;48.080;11.960;2023-07-20T01:41:10;94663.63;;;20.19;100.00
23363;BME280;11853;48.080;11.960;2023-07-20T01:43:36;94659.84;;;20.27;100.00
23363;BME280;11853;48.080;11.960;2023-07-20T01:46:02;94665.25;;;20.20;100.00
23363;BME280;11853;48.080;11.960;2023-07-20T01:48:27;94664.81;;;20.23;100.00
23363;BME280;11853;48.080;11.960;2023-07-20T01:50:53;94660.53;;;20.15;100.00
23363;BME280;11853;48.080;11.960;2023-07-20T01:53:20;94661.09;;;20.24;100.00
23363;BME280;11853;48.080;11.960;2023-07-20T01:55:46;94659.44;;;20.23;100.00
23363;BME280;11853;48.080;11.960;2023-07-20T01:58:12;94663.63;;;20.19;100.00
23363;BME280;11853;48.080;11.960;2023-07-20T02:00:37;94660.31;;;20.17;100.00
23363;BME280;11853;48.080;11.960;2023-07-20T02:03:04;94666.09;;;20.20;100.00
23363;BME280;11853;48.080;11.960;2023-07-20T02:05:29;94673.56;;;20.18;100.00
23363;BME280;11853;48.080;11.960;2023-07-20T02:07:55;94672.50;;;20.26;100.00
23363;BME280;11853;48.080;11.960;2023-07-20T02:10:21;94665.00;;;20.28;100.00
23363;BME280;11853;48.080;11.960;2023-07-20T02:12:47;94671.44;;;20.27;100.00
23363;BME280;11853;48.080;11.960;2023-07-20T02:15:14;94675.59;;;20.23;100.00
23363;BME280;11853;48.080;11.960;2023-07-20T02:17:42;94677.38;;;20.04;100.00
23363;BME280;11853;48.080;11.960;2023-07-20T02:20:09;94678.56;;;20.15;100.00
23363;BME280;11853;48.080;11.960;2023-07-20T02:22:36;94678.13;;;20.18;100.00
23363;BME280;11853;48.080;11.960;2023-07-20T02:25:04;94679.41;;;20.15;100.00
23363;BME280;11853;48.080;11.960;2023-07-20T02:27:30;94688.28;;;20.16;100.00
23363;BME280;11853;48.080;11.960;2023-07-20T02:29:56;94679.81;;;20.12;100.00
23363;BME280;11853;48.080;11.960;2023-07-20T02:32:22;94684.41;;;20.12;100.00
23363;BME280;11853;48.080;11.960;2023-07-20T02:34:47;94678.00;;;20.06;100.00
23363;BME280;11853;48.080;11.960;2023-07-20T02:37:13;94676.91;;;20.14;100.00
23363;BME280;11853;48.080;11.960;2023-07-20T02:39:39;94682.09;;;20.15;100.00
23363;BME280;11853;48.080;11.960;2023-07-20T02:42:05;94680.41;;;20.21;100.00
23363;BME280;11853;48.080;11.960;2023-07-20T02:44:31;94681.59;;;20.25;100.00
23363;BME280;11853;48.080;11.960;2023-07-20T02:46:57;94676.03;;;20.20;100.00
23363;BME280;11853;48.080;11.960;2023-07-20T02:49:22;94672.13;;;20.16;100.00
23363;BME280;11853;48.080;11.960;2023-07-20T02:51:48;94678.97;;;20.18;100.00
23363;BME280;11853;48.080;11.960;2023-07-20T02:54:14;94677.28;;;20.24;100.00
23363;BME280;11853;48.080;11.960;2023-07-20T02:56:40;94684.28;;;20.25;100.00
23363;BME280;11853;48.080;11.960;2023-07-20T02:59:06;94681.28;;;20.15;100.00
23363;BME280;11853;48.080;11.960;2023-07-20T03:01:31;94676.13;;;20.07;100.00
23363;BME280;11853;48.080;11.960;2023-07-20T03:03:57;94667.81;;;20.15;100.00
23363;BME280;11853;48.080;11.960;2023-07-20T03:06:23;94675.06;;;20.08;100.00
23363;BME280;11853;48.080;11.960;2023-07-20T03:08:49;94676.31;;;20.12;100.00
23363;BME280;11853;48.080;11.960;2023-07-20T03:11:18;94683.91;;;20.21;100.00
23363;BME280;11853;48.080;11.960;2023-07-20T03:14:02;94678.13;;;20.18;100.00
23363;BME280;11853;48.080;11.960;2023-07-20T03:16:27;94680.84;;;20.11;100.00
23363;BME280;11853;48.080;11.960;2023-07-20T03:18:53;94678.56;;;20.15;100.00
23363;BME280;11853;48.080;11.960;2023-07-20T03:21:18;94696.44;;;20.02;100.00
23363;BME280;11853;48.080;11.960;2023-07-20T03:23:44;94712.59;;;20.02;100.00
23363;BME280;11853;48.080;11.960;2023-07-20T03:26:10;94711.16;;;20.00;100.00
23363;BME280;11853;48.080;11.960;2023-07-20T03:28:36;94712.59;;;20.02;100.00
23363;BME280;11853;48.080;11.960;2023-07-20T03:31:02;94697.50;;;20.01;100.00
23363;BME280;11853;48.080;11.960;2023-07-20T03:33:30;94699.13;;;20.02;100.00
23363;BME280;11853;48.080;11.960;2023-07-20T03:35:57;94706.63;;;20.00;100.00
23363;BME280;11853;48.080;11.960;2023-07-20T03:38:23;94713.47;;;19.96;98.32
23363;BME280;11853;48.080;11.960;2023-07-20T03:40:57;94706.00;;;19.98;98.34
23363;BME280;11853;48.080;11.960;2023-07-20T03:43:23;94700.00;;;19.96;98.55
23363;BME280;11853;48.080;11.960;2023-07-20T03:45:49;94699.81;;;19.91;98.97
23363;BME280;11853;48.080;11.960;2023-07-20T03:48:16;94709.78;;;19.84;99.14
23363;BME280;11853;48.080;11.960;2023-07-20T03:50:44;94716.44;;;19.82;99.45
23363;BME280;11853;48.080;11.960;2023-07-20T03:53:10;94730.94;;;19.74;99.76
23363;BME280;11853;48.080;11.960;2023-07-20T03:55:35;94734.69;;;19.73;100.00
23363;BME280;11853;48.080;11.960;2023-07-20T03:58:01;94745.41;;;19.79;99.55
23363;BME280;11853;48.080;11.960;2023-07-20T04:00:27;94738.16;;;19.80;99.73
23363;BME280;11853;48.080;11.960;2023-07-20T04:02:52;94738.41;;;19.78;99.10
23363;BME280;11853;48.080;11.960;2023-07-20T04:05:18;94749.56;;;19.82;99.05
23363;BME280;11853;48.080;11.960;2023-07-20T04:07:44;94740.03;;;19.86;99.12
23363;BME280;11853;48.080;11.960;2023-07-20T04:10:09;94734.06;;;19.77;98.92
23363;BME280;11853;48.080;11.960;2023-07-20T04:12:35;94738.00;;;19.75;98.77
23363;BME280;11853;48.080;11.960;2023-07-20T04:15:01;94739.66;;;19.76;98.58
23363;BME280;11853;48.080;11.960;2023-07-20T04:17:26;94736.94;;;19.76;98.13
23363;BME280;11853;48.080;11.960;2023-07-20T04:19:52;94745.03;;;19.76;98.38
23363;BME280;11853;48.080;11.960;2023-07-20T04:22:17;94738.84;;;19.69;98.37
23363;BME280;11853;48.080;11.960;2023-07-20T04:24:43;94727.22;;;19.68;98.21
23363;BME280;11853;48.080;11.960;2023-07-20T04:27:08;94732.19;;;19.65;98.00
23363;BME280;11853;48.080;11.960;2023-07-20T04:29:34;94735.31;;;19.62;97.60
23363;BME280;11853;48.080;11.960;2023-07-20T04:31:59;94732.41;;;19.56;98.51
23363;BME280;11853;48.080;11.960;2023-07-20T04:34:25;94730.97;;;19.61;98.85
23363;BME280;11853;48.080;11.960;2023-07-20T04:36:50;94728.72;;;19.57;98.29
23363;BME280;11853;48.080;11.960;2023-07-20T04:39:16;94727.84;;;19.57;98.31
23363;BME280;11853;48.080;11.960;2023-07-20T04:41:42;94729.31;;;19.53;97.51
23363;BME280;11853;48.080;11.960;2023-07-20T04:44:07;94717.94;;;19.51;97.87
23363;BME280;11853;48.080;11.960;2023-07-20T04:46:33;94718.53;;;19.59;96.99
23363;BME280;11853;48.080;11.960;2023-07-20T04:48:59;94729.09;;;19.61;96.85
23363;BME280;11853;48.080;11.960;2023-07-20T04:51:24;94739.66;;;19.56;96.79
23363;BME280;11853;48.080;11.960;2023-07-20T04:53:50;94746.69;;;19.57;97.36
23363;BME280;11853;48.080;11.960;2023-07-20T04:56:15;94744.84;;;19.57;96.85
23363;BME280;11853;48.080;11.960;2023-07-20T04:58:41;94743.56;;;19.60;96.26
23363;BME280;11853;48.080;11.960;2023-07-20T05:01:08;94738.19;;;19.60;95.13
23363;BME280;11853;48.080;11.960;2023-07-20T05:03:33;94743.81;;;19.65;95.86
23363;BME280;11853;48.080;11.960;2023-07-20T05:05:59;94743.81;;;19.58;95.69
23363;BME280;11853;48.080;11.960;2023-07-20T05:08:25;94732.66;;;19.55;95.49
23363;BME280;11853;48.080;11.960;2023-07-20T05:10:50;94734.75;;;19.46;95.82
23363;BME280;11853;48.080;11.960;2023-07-20T05:13:16;94722.69;;;19.55;95.99
23363;BME280;11853;48.080;11.960;2023-07-20T05:15:42;94739.03;;;19.54;95.81
23363;BME280;11853;48.080;11.960;2023-07-20T05:18:07;94745.91;;;19.50;96.62
23363;BME280;11853;48.080;11.960;2023-07-20T05:20:34;94745.28;;;19.41;96.29
23363;BME280;11853;48.080;11.960;2023-07-20T05:23:00;94754.41;;;19.33;97.06
23363;BME280;11853;48.080;11.960;2023-07-20T05:25:26;94751.72;;;19.27;97.57
23363;BME280;11853;48.080;11.960;2023-07-20T05:27:52;94757.91;;;19.34;98.44
23363;BME280;11853;48.080;11.960;2023-07-20T05:30:18;94757.31;;;19.39;98.72
23363;BME280;11853;48.080;11.960;2023-07-20T05:32:44;94763.94;;;19.36;99.94
23363;BME280;11853;48.080;11.960;2023-07-20T05:35:13;94756.69;;;19.30;99.61
23363;BME280;11853;48.080;11.960;2023-07-20T05:37:39;94752.34;;;19.29;100.00
23363;BME280;11853;48.080;11.960;2023-07-20T05:40:05;94751.09;;;19.25;100.00
23363;BME280;11853;48.080;11.960;2023-07-20T05:42:33;94746.97;;;19.22;100.00
23363;BME280;11853;48.080;11.960;2023-07-20T05:44:58;94741.78;;;19.34;100.00
23363;BME280;11853;48.080;11.960;2023-07-20T05:47:24;94748.41;;;19.38;99.91
23363;BME280;11853;48.080;11.960;2023-07-20T05:49:49;94746.34;;;19.40;99.61
23363;BME280;11853;48.080;11.960;2023-07-20T05:52:15;94750.44;;;19.43;99.01
23363;BME280;11853;48.080;11.960;2023-07-20T05:54:41;94746.31;;;19.47;99.28
23363;BME280;11853;48.080;11.960;2023-07-20T05:57:07;94748.38;;;19.51;99.37
23363;BME280;11853;48.080;11.960;2023-07-20T05:59:33;94751.69;;;19.53;98.02
23363;BME280;11853;48.080;11.960;2023-07-20T06:01:58;94760.34;;;19.62;97.31
23363;BME280;11853;48.080;11.960;2023-07-20T06:04:24;94765.97;;;19.67;96.17
23363;BME280;11853;48.080;11.960;2023-07-20T06:06:49;94762.84;;;19.70;95.10
23363;BME280;11853;48.080;11.960;2023-07-20T06:09:15;94771.56;;;19.72;93.58
23363;BME280;11853;48.080;11.960;2023-07-20T06:11:40;94758.53;;;19.69;94.49
23363;BME280;11853;48.080;11.960;2023-07-20T06:14:06;94768.63;;;19.74;94.17
23363;BME280;11853;48.080;11.960;2023-07-20T06:16:32;94777.75;;;19.73;95.07
23363;BME280;11853;48.080;11.960;2023-07-20T06:18:59;94776.28;;;19.77;95.30
23363;BME280;11853;48.080;11.960;2023-07-20T06:21:25;94769.22;;;19.83;95.30
23363;BME280;11853;48.080;11.960;2023-07-20T06:23:54;94772.13;;;19.88;95.41
23363;BME280;11853;48.080;11.960;2023-07-20T06:26:19;94771.09;;;19.89;95.15
23363;BME280;11853;48.080;11.960;2023-07-20T06:28:46;94778.31;;;19.95;94.35
23363;BME280;11853;48.080;11.960;2023-07-20T06:31:11;94773.09;;;20.00;94.31
23363;BME280;11853;48.080;11.960;2023-07-20T06:33:37;94770.84;;;20.03;93.77
23363;BME280;11853;48.080;11.960;2023-07-20T06:36:03;94781.38;;;20.05;93.71
23363;BME280;11853;48.080;11.960;2023-07-20T06:38:29;94774.13;;;20.06;93.31
23363;BME280;11853;48.080;11.960;2023-07-20T06:40:55;94778.06;;;20.10;93.51
23363;BME280;11853;48.080;11.960;2023-07-20T06:43:20;94775.78;;;20.07;93.41
23363;BME280;11853;48.080;11.960;2023-07-20T06:45:51;94780.16;;;20.01;92.03
23363;BME280;11853;48.080;11.960;2023-07-20T06:48:18;94782.63;;;20.02;92.94
23363;BME280;11853;48.080;11.960;2023-07-20T06:50:44;94776.00;;;20.05;93.35
23363;BME280;11853;48.080;11.960;2023-07-20T06:53:09;94780.53;;;20.11;92.95
23363;BME280;11853;48.080;11.960;2023-07-20T06:55:35;94775.13;;;20.18;93.40
23363;BME280;11853;48.080;11.960;2023-07-20T06:58:01;94773.88;;;20.14;92.67
23363;BME280;11853;48.080;11.960;2023-07-20T07:00:26;94781.78;;;20.09;92.12
23363;BME280;11853;48.080;11.960;2023-07-20T07:02:52;94782.63;;;20.09;91.49
23363;BME280;11853;48.080;11.960;2023-07-20T07:05:17;94778.50;;;20.00;91.74
23363;BME280;11853;48.080;11.960;2023-07-20T07:07:43;94778.91;;;20.03;92.40
23363;BME280;11853;48.080;11.960;2023-07-20T07:10:09;94775.16;;;20.05;91.80
23363;BME280;11853;48.080;11.960;2023-07-20T07:12:34;94780.56;;;20.05;92.24
23363;BME280;11853;48.080;11.960;2023-07-20T07:15:02;94775.16;;;20.05;93.11
23363;BME280;11853;48.080;11.960;2023-07-20T07:17:27;94779.94;;;20.09;92.91
23363;BME280;11853;48.080;11.960;2023-07-20T07:19:54;94783.22;;;20.11;92.99
23363;BME280;11853;48.080;11.960;2023-07-20T07:22:21;94780.53;;;20.18;92.43
23363;BME280;11853;48.080;11.960;2023-07-20T07:24:47;94785.81;;;20.31;92.67
23363;BME280;11853;48.080;11.960;2023-07-20T07:27:13;94784.94;;;20.44;91.07
23363;BME280;11853;48.080;11.960;2023-07-20T07:29:41;94777.88;;;20.50;90.49
23363;BME280;11853;48.080;11.960;2023-07-20T07:32:09;94773.09;;;20.58;89.62
23363;BME280;11853;48.080;11.960;2023-07-20T07:34:35;94782.19;;;20.64;87.94
23363;BME280;11853;48.080;11.960;2023-07-20T07:37:01;94784.44;;;20.67;87.92
23363;BME280;11853;48.080;11.960;2023-07-20T07:39:26;94779.88;;;20.67;86.82
23363;BME280;11853;48.080;11.960;2023-07-20T07:41:52;94781.91;;;20.72;86.81
23363;BME280;11853;48.080;11.960;2023-07-20T07:44:18;94783.94;;;20.77;86.01
23363;BME280;11853;48.080;11.960;2023-07-20T07:46:43;94779.94;;;20.86;86.21
23363;BME280;11853;48.080;11.960;2023-07-20T07:49:09;94790.38;;;21.07;85.52
23363;BME280;11853;48.080;11.960;2023-07-20T07:51:34;94791.88;;;21.28;82.89
23363;BME280;11853;48.080;11.960;2023-07-20T07:54:00;94777.63;;;21.46;82.22
23363;BME280;11853;48.080;11.960;2023-07-20T07:56:25;94789.88;;;21.67;82.37
23363;BME280;11853;48.080;11.960;2023-07-20T07:58:51;94782.47;;;21.81;81.03
23363;BME280;11853;48.080;11.960;2023-07-20T08:01:19;94785.47;;;21.91;79.94
23363;BME280;11853;48.080;11.960;2023-07-20T08:03:45;94785.69;;;22.08;79.03
23363;BME280;11853;48.080;11.960;2023-07-20T08:06:15;94785.25;;;22.11;77.91
23363;BME280;11853;48.080;11.960;2023-07-20T08:08:41;94783.97;;;22.14;77.48
23363;BME280;11853;48.080;11.960;2023-07-20T08:11:07;94783.50;;;22.23;77.45
23363;BME280;11853;48.080;11.960;2023-07-20T08:13:34;94790.69;;;22.30;78.01
23363;BME280;11853;48.080;11.960;2023-07-20T08:16:00;94777.38;;;22.28;76.48
23363;BME280;11853;48.080;11.960;2023-07-20T08:18:27;94790.38;;;22.38;76.64
23363;BME280;11853;48.080;11.960;2023-07-20T08:20:53;94780.19;;;22.52;77.90
23363;BME280;11853;48.080;11.960;2023-07-20T08:23:24;94792.94;;;22.63;75.31
23363;BME280;11853;48.080;11.960;2023-07-20T08:25:52;94778.88;;;22.73;75.58
23363;BME280;11853;48.080;11.960;2023-07-20T08:28:18;94777.25;;;22.83;75.32
23363;BME280;11853;48.080;11.960;2023-07-20T08:30:48;94780.44;;;22.92;72.18
23363;BME280;11853;48.080;11.960;2023-07-20T08:33:20;94779.75;;;22.85;71.03
23363;BME280;11853;48.080;11.960;2023-07-20T08:35:46;94781.03;;;22.82;72.28
23363;BME280;11853;48.080;11.960;2023-07-20T08:38:12;94789.59;;;22.79;71.61
23363;BME280;11853;48.080;11.960;2023-07-20T08:40:48;94784.88;;;22.75;72.80
23363;BME280;11853;48.080;11.960;2023-07-20T08:43:15;94779.22;;;22.64;72.66
23363;BME280;11853;48.080;11.960;2023-07-20T08:45:45;94777.28;;;22.53;73.25
23363;BME280;11853;48.080;11.960;2023-07-20T08:48:11;94786.00;;;22.55;72.78
23363;BME280;11853;48.080;11.960;2023-07-20T08:50:38;94790.50;;;22.43;71.97
23363;BME280;11853;48.080;11.960;2023-07-20T08:53:03;94794.88;;;22.44;71.46
23363;BME280;11853;48.080;11.960;2023-07-20T08:55:30;94800.28;;;22.44;71.47
23363;BME280;11853;48.080;11.960;2023-07-20T08:57:59;94798.75;;;22.48;72.15
23363;BME280;11853;48.080;11.960;2023-07-20T09:00:26;94789.59;;;22.49;72.69
23363;BME280;11853;48.080;11.960;2023-07-20T09:02:55;94779.72;;;22.55;72.66
23363;BME280;11853;48.080;11.960;2023-07-20T09:05:23;94783.41;;;22.60;73.14
23363;BME280;11853;48.080;11.960;2023-07-20T09:07:51;94785.78;;;22.68;72.60
23363;BME280;11853;48.080;11.960;2023-07-20T09:10:17;94787.94;;;22.66;72.40
23363;BME280;11853;48.080;11.960;2023-07-20T09:12:43;94786.63;;;22.69;72.55
23363;BME280;11853;48.080;11.960;2023-07-20T09:15:11;94778.13;;;22.65;73.27
23363;BME280;11853;48.080;11.960;2023-07-20T09:17:37;94781.78;;;22.59;73.28
23363;BME280;11853;48.080;11.960;2023-07-20T09:20:07;94782.13;;;22.63;73.65
23363;BME280;11853;48.080;11.960;2023-07-20T09:22:37;94773.78;;;22.64;73.28
23363;BME280;11853;48.080;11.960;2023-07-20T09:25:14;94767.34;;;22.77;74.77
23363;BME280;11853;48.080;11.960;2023-07-20T09:27:42;94785.47;;;22.95;73.10
23363;BME280;11853;48.080;11.960;2023-07-20T09:30:08;94779.47;;;23.05;70.44
23363;BME280;11853;48.080;11.960;2023-07-20T09:32:47;94774.41;;;23.08;68.86
23363;BME280;11853;48.080;11.960;2023-07-20T09:35:22;94772.41;;;23.04;70.34
23363;BME280;11853;48.080;11.960;2023-07-20T09:40:20;94768.41;;;23.06;69.40
23363;BME280;11853;48.080;11.960;2023-07-20T09:42:47;94758.91;;;23.15;68.46
23363;BME280;11853;48.080;11.960;2023-07-20T09:45:15;94751.63;;;23.28;68.37
23363;BME280;11853;48.080;11.960;2023-07-20T09:47:41;94758.19;;;23.32;68.18
23363;BME280;11853;48.080;11.960;2023-07-20T09:50:07;94760.00;;;23.38;67.10
23363;BME280;11853;48.080;11.960;2023-07-20T09:52:40;94762.56;;;23.45;67.95
23363;BME280;11853;48.080;11.960;2023-07-20T09:55:09;94751.97;;;23.43;68.21
23363;BME280;11853;48.080;11.960;2023-07-20T09:57:36;94756.34;;;23.44;64.37
23363;BME280;11853;48.080;11.960;2023-07-20T10:00:04;94757.16;;;23.33;64.55
23363;BME280;11853;48.080;11.960;2023-07-20T10:02:41;94748.09;;;23.39;66.83
23363;BME280;11853;48.080;11.960;2023-07-20T10:05:11;94745.03;;;23.47;66.68
23363;BME280;11853;48.080;11.960;2023-07-20T10:07:43;94744.91;;;23.54;63.70
23363;BME280;11853;48.080;11.960;2023-07-20T10:10:10;94748.19;;;23.68;63.27
23363;BME280;11853;48.080;11.960;2023-07-20T10:12:37;94751.88;;;23.85;64.29
23363;BME280;11853;48.080;11.960;2023-07-20T10:17:43;94761.13;;;24.13;60.23
23363;BME280;11853;48.080;11.960;2023-07-20T10:20:16;94757.13;;;24.15;58.84
23363;BME280;11853;48.080;11.960;2023-07-20T10:22:47;94750.41;;;24.06;57.02
23363;BME280;11853;48.080;11.960;2023-07-20T10:25:16;94749.72;;;23.99;57.76
23363;BME280;11853;48.080;11.960;2023-07-20T10:27:42;94748.31;;;23.96;58.75
23363;BME280;11853;48.080;11.960;2023-07-20T10:30:08;94737.59;;;24.01;59.92
23363;BME280;11853;48.080;11.960;2023-07-20T10:32:34;94741.13;;;24.02;58.51
23363;BME280;11853;48.080;11.960;2023-07-20T10:35:00;94740.03;;;24.03;58.40
23363;BME280;11853;48.080;11.960;2023-07-20T10:38:03;94741.13;;;24.02;58.81
23363;BME280;11853;48.080;11.960;2023-07-20T10:40:33;94734.28;;;23.99;58.78
23363;BME280;11853;48.080;11.960;2023-07-20T10:43:01;94741.47;;;24.05;59.13
23363;BME280;11853;48.080;11.960;2023-07-20T10:45:49;94736.75;;;24.13;57.49
23363;BME280;11853;48.080;11.960;2023-07-20T10:48:22;94739.94;;;24.10;54.91
23363;BME280;11853;48.080;11.960;2023-07-20T10:51:20;94740.16;;;24.08;57.01
23363;BME280;11853;48.080;11.960;2023-07-20T10:53:48;94732.63;;;24.10;58.73
23363;BME280;11853;48.080;11.960;2023-07-20T10:56:20;94732.81;;;24.20;58.92
23363;BME280;11853;48.080;11.960;2023-07-20T10:58:46;94727.25;;;24.27;58.75
23363;BME280;11853;48.080;11.960;2023-07-20T11:01:16;94719.47;;;24.31;58.93
23363;BME280;11853;48.080;11.960;2023-07-20T11:03:43;94719.19;;;24.32;58.31
23363;BME280;11853;48.080;11.960;2023-07-20T11:09:06;94725.19;;;24.05;56.08
23363;BME280;11853;48.080;11.960;2023-07-20T11:11:37;94721.06;;;24.03;55.79
23363;BME280;11853;48.080;11.960;2023-07-20T11:14:08;94724.16;;;24.07;55.94
23363;BME280;11853;48.080;11.960;2023-07-20T11:16:46;94716.69;;;24.14;56.12
23363;BME280;11853;48.080;11.960;2023-07-20T11:21:43;94711.06;;;24.32;57.61
23363;BME280;11853;48.080;11.960;2023-07-20T11:24:09;94704.44;;;24.40;57.35
23363;BME280;11853;48.080;11.960;2023-07-20T11:29:07;94708.56;;;24.42;55.80
23363;BME280;11853;48.080;11.960;2023-07-20T11:31:37;94704.81;;;24.43;55.75
23363;BME280;11853;48.080;11.960;2023-07-20T11:34:03;94702.00;;;24.38;55.60
23363;BME280;11853;48.080;11.960;2023-07-20T11:36:28;94702.59;;;24.28;53.34
23363;BME280;11853;48.080;11.960;2023-07-20T11:38:54;94696.63;;;24.15;53.56
23363;BME280;11853;48.080;11.960;2023-07-20T11:41:20;94703.72;;;24.16;53.88
23363;BME280;11853;48.080;11.960;2023-07-20T11:43:47;94698.78;;;24.13;54.72
23363;BME280;11853;48.080;11.960;2023-07-20T11:46:13;94693.91;;;24.15;55.48
23363;BME280;11853;48.080;11.960;2023-07-20T11:48:38;94687.09;;;24.12;55.40
23363;BME280;11853;48.080;11.960;2023-07-20T11:51:05;94699.81;;;24.12;56.75
23363;BME280;11853;48.080;11.960;2023-07-20T11:53:31;94701.50;;;24.13;57.20
23363;BME280;11853;48.080;11.960;2023-07-20T11:55:59;94695.81;;;24.14;57.51
23363;BME280;11853;48.080;11.960;2023-07-20T11:58:27;94693.34;;;24.13;56.52
23363;BME280;11853;48.080;11.960;2023-07-20T12:00:55;94698.78;;;24.13;56.57
23363;BME280;11853;48.080;11.960;2023-07-20T12:03:21;94691.13;;;24.10;56.00
23363;BME280;11853;48.080;11.960;2023-07-20T12:05:46;94680.13;;;24.16;56.64
23363;BME280;11853;48.080;11.960;2023-07-20T12:08:12;94680.69;;;24.30;59.01
23363;BME280;11853;48.080;11.960;2023-07-20T12:10:39;94666.13;;;24.36;55.30
23363;BME280;11853;48.080;11.960;2023-07-20T12:13:10;94672.72;;;24.40;55.49
23363;BME280;11853;48.080;11.960;2023-07-20T12:15:37;94670.59;;;24.42;54.89
23363;BME280;11853;48.080;11.960;2023-07-20T12:18:03;94665.88;;;24.49;56.84
23363;BME280;11853;48.080;11.960;2023-07-20T12:20:34;94661.69;;;24.59;56.76
23363;BME280;11853;48.080;11.960;2023-07-20T12:23:09;94662.34;;;24.66;57.41
23363;BME280;11853;48.080;11.960;2023-07-20T12:25:39;94660.63;;;24.60;56.33
23363;BME280;11853;48.080;11.960;2023-07-20T12:28:11;94663.66;;;24.63;55.88
23363;BME280;11853;48.080;11.960;2023-07-20T12:30:37;94656.69;;;24.67;56.27
23363;BME280;11853;48.080;11.960;2023-07-20T12:33:04;94652.56;;;24.65;55.34
23363;BME280;11853;48.080;11.960;2023-07-20T12:35:30;94644.25;;;24.55;53.26
23363;BME280;11853;48.080;11.960;2023-07-20T12:37:57;94646.47;;;24.58;55.69
23363;BME280;11853;48.080;11.960;2023-07-20T12:40:22;94648.94;;;24.59;56.92
23363;BME280;11853;48.080;11.960;2023-07-20T12:42:48;94646.31;;;24.64;56.25
23363;BME280;11853;48.080;11.960;2023-07-20T12:45:14;94642.94;;;24.74;57.38
23363;BME280;11853;48.080;11.960;2023-07-20T12:47:41;94636.72;;;24.73;54.06
23363;BME280;11853;48.080;11.960;2023-07-20T12:50:10;94632.19;;;24.79;55.98
23363;BME280;11853;48.080;11.960;2023-07-20T12:52:37;94638.84;;;24.88;56.65
23363;BME280;11853;48.080;11.960;2023-07-20T12:55:04;94636.13;;;24.88;55.52
23363;BME280;11853;48.080;11.960;2023-07-20T12:57:30;94639.25;;;24.80;54.15
23363;BME280;11853;48.080;11.960;2023-07-20T12:59:56;94633.66;;;24.70;54.20
23363;BME280;11853;48.080;11.960;2023-07-20T13:02:21;94634.97;;;24.67;54.86
23363;BME280;11853;48.080;11.960;2023-07-20T13:04:48;94635.47;;;24.64;54.59
23363;BME280;11853;48.080;11.960;2023-07-20T13:07:14;94633.97;;;24.57;55.08
23363;BME280;11853;48.080;11.960;2023-07-20T13:09:39;94629.75;;;24.49;54.18
23363;BME280;11853;48.080;11.960;2023-07-20T13:12:05;94632.16;;;24.45;54.31
23363;BME280;11853;48.080;11.960;2023-07-20T13:14:31;94631.06;;;24.46;54.49